createdAt,value
2023-01-26T00:02:10.110Z,73.90
2023-01-26T00:04:42.511Z,73.86
2023-01-26T00:07:14.945Z,73.93
2023-01-26T00:09:47.513Z,73.96
2023-01-26T00:12:19.887Z,73.90
2023-01-26T00:14:52.250Z,73.97
2023-01-26T00:17:27.477Z,74.02
2023-01-26T00:19:59.285Z,74.07
2023-01-26T00:22:31.737Z,74.20
2023-01-26T00:25:04.095Z,74.10
2023-01-26T00:27:36.673Z,74.02
2023-01-26T00:30:12.227Z,73.90
2023-01-26T00:32:44.809Z,74.14
2023-01-26T00:35:17.325Z,74.18
2023-01-26T00:37:49.896Z,74.14
2023-01-26T00:40:22.346Z,74.21
2023-01-26T00:42:55.639Z,74.35
2023-01-26T00:45:28.084Z,74.17
2023-01-26T00:48:00.941Z,74.13
2023-01-26T00:50:35.052Z,74.23
2023-01-26T00:53:07.492Z,74.20
2023-01-26T00:55:40.190Z,74.17
2023-01-26T00:58:13.273Z,74.17
2023-01-26T01:00:45.639Z,74.36
2023-01-26T01:03:18.143Z,74.47
2023-01-26T01:05:53.041Z,74.40
2023-01-26T01:08:25.435Z,74.53
2023-01-26T01:11:08.286Z,74.32
2023-01-26T01:13:41.281Z,74.45
2023-01-26T01:16:16.672Z,74.68
2023-01-26T01:18:49.127Z,74.60
2023-01-26T01:21:21.783Z,74.40
2023-01-26T01:23:54.169Z,74.50
2023-01-26T01:26:26.547Z,74.47
2023-01-26T01:28:59.390Z,74.38
2023-01-26T01:31:32.035Z,74.59
2023-01-26T01:34:04.588Z,74.41
2023-01-26T01:36:36.924Z,74.41
2023-01-26T01:39:09.414Z,74.41
2023-01-26T01:41:41.804Z,74.61
2023-01-26T01:44:21.984Z,74.37
2023-01-26T01:46:58.591Z,74.50
2023-01-26T01:49:34.685Z,74.54
2023-01-26T01:52:12.170Z,74.43
2023-01-26T01:54:48.948Z,74.61
2023-01-26T01:57:27.946Z,74.41
2023-01-26T02:00:04.277Z,74.60
2023-01-26T02:03:07.327Z,74.57
2023-01-26T02:05:47.378Z,74.83
2023-01-26T02:08:22.870Z,74.54
2023-01-26T02:10:59.966Z,74.55
2023-01-26T02:13:34.750Z,74.61
2023-01-26T02:16:10.937Z,74.73
2023-01-26T02:18:43.795Z,74.55
2023-01-26T02:21:21.268Z,74.65
2023-01-26T02:24:05.033Z,74.56
2023-01-26T02:26:38.871Z,74.74
2023-01-26T02:29:12.845Z,74.65
2023-01-26T02:31:49.496Z,74.57
2023-01-26T02:34:21.975Z,74.61
2023-01-26T02:37:01.624Z,74.63
2023-01-26T02:39:45.654Z,74.59
2023-01-26T02:42:36.127Z,74.78
2023-01-26T02:45:11.232Z,74.69
2023-01-26T02:47:42.033Z,74.50
2023-01-26T02:50:16.963Z,74.48
2023-01-26T02:52:49.743Z,74.58
2023-01-26T02:55:25.475Z,74.60
2023-01-26T02:57:59.680Z,74.56
2023-01-26T03:00:35.088Z,74.67
2023-01-26T03:03:11.180Z,74.83
2023-01-26T03:05:43.645Z,74.50
2023-01-26T03:08:16.188Z,74.50
2023-01-26T03:10:49.230Z,74.61
2023-01-26T03:13:23.095Z,74.76
2023-01-26T03:15:55.513Z,74.78
2023-01-26T03:18:46.235Z,74.75
2023-01-26T03:21:37.274Z,74.74
2023-01-26T03:24:31.258Z,74.79
2023-01-26T03:27:22.458Z,75.04
2023-01-26T03:29:56.637Z,74.88
2023-01-26T03:32:29.332Z,74.87
2023-01-26T03:35:02.105Z,74.86
2023-01-26T03:37:37.116Z,74.75
2023-01-26T03:40:34.369Z,74.75
2023-01-26T03:43:28.374Z,75.09
2023-01-26T03:46:20.660Z,74.66
2023-01-26T03:49:10.659Z,74.48
2023-01-26T03:52:00.433Z,74.75
2023-01-26T03:54:50.601Z,74.35
2023-01-26T03:57:23.469Z,74.60
2023-01-26T03:59:56.022Z,74.84
2023-01-26T04:02:46.298Z,74.75
2023-01-26T04:05:35.958Z,74.86
2023-01-26T04:08:24.805Z,74.68
2023-01-26T04:11:02.966Z,74.51
2023-01-26T04:13:53.017Z,74.72
2023-01-26T04:16:51.831Z,74.79
2023-01-26T04:19:41.795Z,74.72
2023-01-26T04:22:15.160Z,74.63
2023-01-26T04:24:49.047Z,74.91
2023-01-26T04:27:21.504Z,75.01
2023-01-26T04:29:53.829Z,74.77
2023-01-26T04:32:27.270Z,74.93
2023-01-26T04:34:59.764Z,74.93
2023-01-26T04:37:33.357Z,75.07
2023-01-26T04:40:07.276Z,75.11
2023-01-26T04:42:41.158Z,75.23
2023-01-26T04:45:14.601Z,75.11
2023-01-26T04:47:48.109Z,75.11
2023-01-26T04:50:22.008Z,75.11
2023-01-26T04:52:54.355Z,75.06
2023-01-26T04:55:26.629Z,75.12
2023-01-26T04:57:59.110Z,75.20
2023-01-26T05:00:31.373Z,75.39
2023-01-26T05:03:03.805Z,75.16
2023-01-26T05:05:40.070Z,75.25
2023-01-26T05:08:12.675Z,75.00
2023-01-26T05:10:45.265Z,74.86
2023-01-26T05:13:27.546Z,75.19
2023-01-26T05:16:18.557Z,75.25
2023-01-26T05:19:21.137Z,75.25
2023-01-26T05:22:03.779Z,75.16
2023-01-26T05:24:38.017Z,75.26
2023-01-26T05:27:22.441Z,75.34
2023-01-26T05:30:02.037Z,74.96
2023-01-26T05:32:36.608Z,75.54
2023-01-26T05:35:10.015Z,75.06
2023-01-26T05:37:43.316Z,75.29
2023-01-26T05:40:16.474Z,75.00
2023-01-26T05:42:49.782Z,75.04
2023-01-26T05:45:40.883Z,75.42
2023-01-26T05:48:14.542Z,75.15
2023-01-26T05:50:47.167Z,75.54
2023-01-26T05:53:21.568Z,75.11
2023-01-26T05:55:54.241Z,75.46
2023-01-26T05:58:29.825Z,75.07
2023-01-26T06:01:06.946Z,75.27
2023-01-26T06:03:45.346Z,75.12
2023-01-26T06:06:17.829Z,75.38
2023-01-26T06:08:57.563Z,75.22
2023-01-26T06:11:40.170Z,75.48
2023-01-26T06:14:26.898Z,75.27
2023-01-26T06:16:59.785Z,75.55
2023-01-26T06:19:32.180Z,75.56
2023-01-26T06:22:09.163Z,75.32
2023-01-26T06:24:43.428Z,75.04
2023-01-26T06:27:18.978Z,75.33
2023-01-26T06:29:53.731Z,75.42
2023-01-26T06:32:28.199Z,75.51
2023-01-26T06:35:01.296Z,75.12
2023-01-26T06:37:33.711Z,75.41
2023-01-26T06:40:09.806Z,75.62
2023-01-26T06:42:47.856Z,75.05
2023-01-26T06:45:20.923Z,75.18
2023-01-26T06:47:55.177Z,75.20
2023-01-26T06:50:33.020Z,75.33
2023-01-26T06:53:26.411Z,75.28
2023-01-26T06:56:17.502Z,75.28
2023-01-26T06:59:02.249Z,75.51
2023-01-26T07:01:53.059Z,75.51
2023-01-26T07:04:28.373Z,75.44
2023-01-26T07:07:00.889Z,75.38
2023-01-26T07:09:33.168Z,75.42
2023-01-26T07:12:06.053Z,75.62
2023-01-26T07:14:38.445Z,75.26
2023-01-26T07:17:10.700Z,75.44
2023-01-26T07:19:42.970Z,75.39
2023-01-26T07:22:19.766Z,75.56
2023-01-26T07:24:51.960Z,75.35
2023-01-26T07:27:24.152Z,75.61
2023-01-26T07:29:56.599Z,75.37
2023-01-26T07:32:28.967Z,75.42
2023-01-26T07:35:01.274Z,75.71
2023-01-26T07:37:33.716Z,75.68
2023-01-26T07:40:07.064Z,75.54
2023-01-26T07:42:39.538Z,75.33
2023-01-26T07:45:24.072Z,75.03
2023-01-26T07:47:58.955Z,75.43
2023-01-26T07:50:30.274Z,75.70
2023-01-26T07:53:04.244Z,75.41
2023-01-26T07:55:36.579Z,75.74
2023-01-26T07:58:08.831Z,75.57
2023-01-26T08:00:41.359Z,75.98
2023-01-26T08:03:13.735Z,75.60
2023-01-26T08:05:47.334Z,75.68
2023-01-26T08:08:20.058Z,75.59
2023-01-26T08:10:52.283Z,75.80
2023-01-26T08:13:34.630Z,75.65
2023-01-26T08:16:12.229Z,75.61
2023-01-26T08:18:46.393Z,75.53
2023-01-26T08:21:19.917Z,75.57
2023-01-26T08:23:53.363Z,75.39
2023-01-26T08:26:25.732Z,75.75
2023-01-26T08:28:58.627Z,75.73
2023-01-26T08:31:31.060Z,75.70
2023-01-26T08:34:04.234Z,75.76
2023-01-26T08:36:36.470Z,75.69
2023-01-26T08:39:08.928Z,75.76
2023-01-26T08:41:41.342Z,76.17
2023-01-26T08:44:13.978Z,75.90
2023-01-26T08:46:47.478Z,75.89
2023-01-26T08:49:19.937Z,75.89
2023-01-26T08:51:52.348Z,75.97
2023-01-26T08:54:24.683Z,75.99
2023-01-26T08:56:56.932Z,75.83
2023-01-26T08:59:29.238Z,76.06
2023-01-26T09:02:01.607Z,75.89
2023-01-26T09:04:34.369Z,76.11
2023-01-26T09:07:07.115Z,75.93
2023-01-26T09:09:39.506Z,76.12
2023-01-26T09:12:11.840Z,76.41
2023-01-26T09:14:44.149Z,76.15
2023-01-26T09:17:16.432Z,75.89
2023-01-26T09:19:48.568Z,76.22
2023-01-26T09:22:20.790Z,75.97
2023-01-26T09:24:53.040Z,75.81
2023-01-26T09:27:25.664Z,76.40
2023-01-26T09:29:58.143Z,75.86
2023-01-26T09:32:31.166Z,76.15
2023-01-26T09:35:03.470Z,75.91
2023-01-26T09:37:35.792Z,75.64
2023-01-26T09:40:16.881Z,76.14
2023-01-26T09:43:06.519Z,76.35
2023-01-26T09:45:47.891Z,76.18
2023-01-26T09:48:32.821Z,76.38
2023-01-26T09:51:10.663Z,75.87
2023-01-26T09:53:54.219Z,75.96
2023-01-26T09:56:29.556Z,76.13
2023-01-26T09:59:06.693Z,76.19
2023-01-26T10:01:44.973Z,76.04
2023-01-26T10:04:29.919Z,76.46
2023-01-26T10:07:03.286Z,76.10
2023-01-26T10:09:53.133Z,75.98
2023-01-26T10:12:29.864Z,76.16
2023-01-26T10:15:08.498Z,76.16
2023-01-26T10:17:43.968Z,76.05
2023-01-26T10:20:26.213Z,75.92
2023-01-26T10:23:03.719Z,76.15
2023-01-26T10:25:39.601Z,76.53
2023-01-26T10:28:17.417Z,75.98
2023-01-26T10:30:51.471Z,76.24
2023-01-26T10:33:29.446Z,75.99
2023-01-26T10:36:02.187Z,75.97
2023-01-26T10:38:45.539Z,76.46
2023-01-26T10:41:31.104Z,76.52
2023-01-26T10:44:06.186Z,76.64
2023-01-26T10:46:39.841Z,76.33
2023-01-26T10:49:18.959Z,76.42
2023-01-26T10:52:08.543Z,76.24
2023-01-26T10:54:43.796Z,76.56
2023-01-26T10:57:23.445Z,76.49
2023-01-26T10:59:59.097Z,76.75
2023-01-26T11:02:33.026Z,76.55
2023-01-26T11:05:21.529Z,76.44
2023-01-26T11:07:58.803Z,76.58
2023-01-26T11:10:35.016Z,76.41
2023-01-26T11:13:16.718Z,76.68
2023-01-26T11:15:51.080Z,76.56
2023-01-26T11:18:35.767Z,76.60
2023-01-26T11:21:12.933Z,76.66
2023-01-26T11:23:55.312Z,76.53
2023-01-26T11:26:49.496Z,76.77
2023-01-26T11:29:38.592Z,76.78
2023-01-26T11:32:23.516Z,76.68
2023-01-26T11:35:06.262Z,76.66
2023-01-26T11:37:44.392Z,76.77
2023-01-26T11:40:31.569Z,76.45
2023-01-26T11:43:24.039Z,76.64
2023-01-26T11:46:09.739Z,76.36
2023-01-26T11:48:58.013Z,76.70
2023-01-26T11:51:45.420Z,76.39
2023-01-26T11:54:39.906Z,76.54
2023-01-26T11:57:23.084Z,76.82
2023-01-26T12:00:01.176Z,76.62
2023-01-26T12:02:36.903Z,76.50
2023-01-26T12:05:18.928Z,76.40
2023-01-26T12:07:55.776Z,76.87
2023-01-26T12:10:34.660Z,76.74
2023-01-26T12:13:15.536Z,76.57
2023-01-26T12:15:53.974Z,76.81
2023-01-26T12:18:46.803Z,76.80
2023-01-26T12:21:22.050Z,76.72
2023-01-26T12:23:59.863Z,76.62
2023-01-26T12:26:38.003Z,76.76
2023-01-26T12:29:18.181Z,77.11
2023-01-26T12:31:56.286Z,76.70
2023-01-26T12:34:33.515Z,76.46
2023-01-26T12:37:27.450Z,76.87
2023-01-26T12:40:14.091Z,76.84
2023-01-26T12:42:51.740Z,77.09
2023-01-26T12:45:30.292Z,77.11
2023-01-26T12:48:12.917Z,77.05
2023-01-26T12:50:50.732Z,77.11
2023-01-26T12:53:30.259Z,76.90
2023-01-26T12:56:10.820Z,77.02
2023-01-26T12:58:47.033Z,77.24
2023-01-26T13:01:22.433Z,77.13
2023-01-26T13:03:59.016Z,77.25
2023-01-26T13:06:32.044Z,77.35
2023-01-26T13:09:19.763Z,76.92
2023-01-26T13:11:54.754Z,76.94
2023-01-26T13:14:37.493Z,77.11
2023-01-26T13:17:40.550Z,77.01
2023-01-26T13:20:43.497Z,77.35
2023-01-26T13:23:53.082Z,77.12
2023-01-26T13:26:45.608Z,77.10
2023-01-26T13:29:36.246Z,77.12
2023-01-26T13:32:48.390Z,77.27
2023-01-26T13:35:24.288Z,76.97
2023-01-26T13:38:04.639Z,77.23
2023-01-26T13:40:38.848Z,77.28
2023-01-26T13:43:26.649Z,77.22
2023-01-26T13:46:13.778Z,77.22
2023-01-26T13:48:48.852Z,77.07
2023-01-26T13:51:20.908Z,77.10
2023-01-26T13:53:59.158Z,77.44
2023-01-26T13:56:34.490Z,77.08
2023-01-26T13:59:12.635Z,77.18
2023-01-26T14:01:47.617Z,76.90
2023-01-26T14:04:21.742Z,77.18
2023-01-26T14:06:57.578Z,77.02
2023-01-26T14:09:32.818Z,77.09
2023-01-26T14:12:08.471Z,77.38
2023-01-26T14:14:41.464Z,76.96
2023-01-26T14:17:28.365Z,77.13
2023-01-26T14:20:03.739Z,77.21
2023-01-26T14:22:37.824Z,76.93
2023-01-26T14:25:12.323Z,77.31
2023-01-26T14:27:45.102Z,76.88
2023-01-26T14:30:29.913Z,77.19
2023-01-26T14:33:07.501Z,77.23
2023-01-26T14:35:40.000Z,77.05
2023-01-26T14:38:20.051Z,77.01
2023-01-26T14:40:54.219Z,76.88
2023-01-26T14:43:30.204Z,77.12
2023-01-26T14:46:08.034Z,77.35
2023-01-26T14:48:44.264Z,77.15
2023-01-26T14:51:23.014Z,77.06
2023-01-26T14:53:59.827Z,77.55
2023-01-26T14:56:38.189Z,77.49
2023-01-26T14:59:20.090Z,77.16
2023-01-26T15:01:52.590Z,77.77
2023-01-26T15:04:37.921Z,77.42
2023-01-26T15:07:36.511Z,77.19
2023-01-26T15:10:31.842Z,77.18
2023-01-26T15:13:07.217Z,77.25
2023-01-26T15:15:41.147Z,77.15
2023-01-26T15:18:21.959Z,77.58
2023-01-26T15:21:01.377Z,77.41
2023-01-26T15:23:36.244Z,77.41
2023-01-26T15:26:10.785Z,77.38
2023-01-26T15:28:43.324Z,77.42
2023-01-26T15:31:26.557Z,77.34
2023-01-26T15:34:01.730Z,76.93
2023-01-26T15:36:48.335Z,77.36
2023-01-26T15:39:21.723Z,77.35
2023-01-26T15:42:13.596Z,77.21
2023-01-26T15:44:45.893Z,77.24
2023-01-26T15:47:18.196Z,77.37
2023-01-26T15:49:50.599Z,77.57
2023-01-26T15:52:25.862Z,77.32
2023-01-26T15:54:58.206Z,77.00
2023-01-26T15:57:31.712Z,77.35
2023-01-26T16:00:04.939Z,77.30
2023-01-26T16:02:39.225Z,77.51
2023-01-26T16:05:17.262Z,77.12
2023-01-26T16:07:53.051Z,77.52
2023-01-26T16:10:25.322Z,77.59
2023-01-26T16:12:57.786Z,77.75
2023-01-26T16:15:43.457Z,77.53
2023-01-26T16:18:16.094Z,77.37
2023-01-26T16:20:50.201Z,77.72
2023-01-26T16:23:24.863Z,77.20
2023-01-26T16:25:57.483Z,77.35
2023-01-26T16:28:29.886Z,77.55
2023-01-26T16:31:06.678Z,77.70
2023-01-26T16:33:39.005Z,77.76
2023-01-26T16:36:14.579Z,77.51
2023-01-26T16:38:47.665Z,77.74
2023-01-26T16:41:25.647Z,77.82
2023-01-26T16:43:59.695Z,77.85
2023-01-26T16:46:33.333Z,77.46
2023-01-26T16:49:05.652Z,77.92
2023-01-26T16:51:41.673Z,77.99
2023-01-26T16:54:14.175Z,77.78
2023-01-26T16:56:46.416Z,77.76
2023-01-26T16:59:18.707Z,77.67
2023-01-26T17:01:51.040Z,78.13
2023-01-26T17:04:23.412Z,77.87
2023-01-26T17:06:55.668Z,78.02
2023-01-26T17:09:28.714Z,77.94
2023-01-26T17:12:00.978Z,78.06
2023-01-26T17:14:33.386Z,77.99
2023-01-26T17:17:06.023Z,78.01
2023-01-26T17:19:38.319Z,77.91
2023-01-26T17:22:10.663Z,77.70
2023-01-26T17:24:43.680Z,77.50
2023-01-26T17:27:16.077Z,77.92
2023-01-26T17:29:50.100Z,77.98
2023-01-26T17:32:25.570Z,78.00
2023-01-26T17:34:58.198Z,77.69
2023-01-26T17:37:31.707Z,77.98
2023-01-26T17:40:04.698Z,77.96
2023-01-26T17:42:37.037Z,77.62
2023-01-26T17:48:21.479Z,77.91
2023-01-26T17:50:56.074Z,78.04
2023-01-26T17:53:29.108Z,78.00
2023-01-26T17:56:01.322Z,78.27
2023-01-26T17:58:33.554Z,78.28
2023-01-26T18:01:06.374Z,78.39
2023-01-26T18:03:42.952Z,78.33
2023-01-26T18:06:15.620Z,78.35
2023-01-26T18:08:48.581Z,78.39
2023-01-26T18:11:21.332Z,78.58
2023-01-26T18:13:55.491Z,78.39
2023-01-26T18:16:27.776Z,78.40
2023-01-26T18:19:01.381Z,78.58
2023-01-26T18:21:36.027Z,78.38
2023-01-26T18:24:11.104Z,78.02
2023-01-26T18:26:43.355Z,78.23
2023-01-26T18:29:16.793Z,78.07
2023-01-26T18:31:49.253Z,78.00
2023-01-26T18:34:21.590Z,78.50
2023-01-26T18:36:53.747Z,78.57
2023-01-26T18:39:25.885Z,78.57
2023-01-26T18:41:58.207Z,78.71
2023-01-26T18:44:30.387Z,78.90
2023-01-26T18:47:02.574Z,78.74
2023-01-26T18:49:34.726Z,78.65
2023-01-26T18:52:06.915Z,78.67
2023-01-26T18:54:39.112Z,78.33
2023-01-26T18:57:11.251Z,78.41
2023-01-26T18:59:43.401Z,78.14
2023-01-26T19:02:16.478Z,78.32
2023-01-26T19:04:48.737Z,78.38
2023-01-26T19:07:21.369Z,78.30
2023-01-26T19:09:53.559Z,78.62
2023-01-26T19:12:25.820Z,78.67
2023-01-26T19:14:58.009Z,78.90
2023-01-26T19:17:30.252Z,78.81
2023-01-26T19:20:02.516Z,78.68
2023-01-26T19:22:34.676Z,78.85
2023-01-26T19:25:07.587Z,78.83
2023-01-26T19:27:40.482Z,78.63
2023-01-26T19:30:15.571Z,78.36
2023-01-26T19:33:04.806Z,78.27
2023-01-26T19:35:39.367Z,78.50
2023-01-26T19:38:11.556Z,78.44
2023-01-26T19:40:47.093Z,78.33
2023-01-26T19:43:20.238Z,78.69
2023-01-26T19:45:54.131Z,78.64
2023-01-26T19:48:28.806Z,78.89
2023-01-26T19:51:03.521Z,78.65
2023-01-26T19:53:37.906Z,78.84
2023-01-26T19:56:11.715Z,78.86
2023-01-26T19:58:44.155Z,78.98
2023-01-26T20:01:16.456Z,78.95
2023-01-26T20:03:52.785Z,78.73
2023-01-26T20:06:27.416Z,78.54
2023-01-26T20:09:00.894Z,78.61
2023-01-26T20:11:34.265Z,78.85
2023-01-26T20:14:08.866Z,78.71
2023-01-26T20:16:41.283Z,78.65
2023-01-26T20:19:15.099Z,78.71
2023-01-26T20:21:47.343Z,79.07
2023-01-26T20:24:20.017Z,79.04
2023-01-26T20:26:53.178Z,79.10
2023-01-26T20:29:25.401Z,79.11
2023-01-26T20:31:57.676Z,79.07
2023-01-26T20:34:30.048Z,78.99
2023-01-26T20:37:02.236Z,78.63
2023-01-26T20:39:34.416Z,78.86
2023-01-26T20:42:06.868Z,78.76
2023-01-26T20:44:42.373Z,78.95
2023-01-26T20:47:15.471Z,78.89
2023-01-26T20:49:47.689Z,79.11
2023-01-26T20:52:21.889Z,79.27
2023-01-26T20:54:54.720Z,79.48
2023-01-26T20:57:27.036Z,79.18
2023-01-26T20:59:59.352Z,79.42
2023-01-26T21:02:31.523Z,79.52
2023-01-26T21:05:05.338Z,79.50
2023-01-26T21:07:37.953Z,79.53
2023-01-26T21:10:11.798Z,78.98
2023-01-26T21:12:45.592Z,79.13
2023-01-26T21:15:17.929Z,79.30
2023-01-26T21:17:50.367Z,79.28
2023-01-26T21:20:24.174Z,79.35
2023-01-26T21:22:58.711Z,79.52
2023-01-26T21:25:30.961Z,79.46
2023-01-26T21:28:03.172Z,79.43
2023-01-26T21:30:35.445Z,79.55
2023-01-26T21:33:07.732Z,79.65
2023-01-26T21:35:40.557Z,79.84
2023-01-26T21:38:12.805Z,79.72
2023-01-26T21:40:44.971Z,79.57
2023-01-26T21:43:17.171Z,79.65
2023-01-26T21:45:56.010Z,79.23
2023-01-26T21:48:38.167Z,79.18
2023-01-26T21:51:28.918Z,79.41
2023-01-26T21:54:01.938Z,79.33
2023-01-26T21:56:34.612Z,79.27
2023-01-26T21:59:14.686Z,79.45
2023-01-26T22:01:48.903Z,79.56
2023-01-26T22:04:24.320Z,79.57
2023-01-26T22:06:56.845Z,79.47
2023-01-26T22:09:30.114Z,79.79
2023-01-26T22:12:02.327Z,79.73
2023-01-26T22:14:34.612Z,80.06
2023-01-26T22:17:06.880Z,79.92
2023-01-26T22:19:39.159Z,79.57
2023-01-26T22:22:12.799Z,79.27
2023-01-26T22:24:45.054Z,79.22
2023-01-26T22:27:17.253Z,79.58
2023-01-26T22:29:49.450Z,79.39
2023-01-26T22:32:21.733Z,79.65
2023-01-26T22:34:54.019Z,79.68
2023-01-26T22:37:26.484Z,79.79
2023-01-26T22:39:59.491Z,79.59
2023-01-26T22:42:31.744Z,79.74
2023-01-26T22:45:04.155Z,79.91
2023-01-26T22:47:38.623Z,80.17
2023-01-26T22:50:14.103Z,80.16
2023-01-26T22:52:46.512Z,79.77
2023-01-26T22:55:19.297Z,79.35
2023-01-26T22:57:51.738Z,79.50
2023-01-26T23:00:24.260Z,79.65
2023-01-26T23:02:56.526Z,79.82
2023-01-26T23:05:28.763Z,79.71
2023-01-26T23:08:01.380Z,79.96
2023-01-26T23:10:33.749Z,80.09
2023-01-26T23:13:06.398Z,80.24
2023-01-26T23:15:40.638Z,80.00
2023-01-26T23:18:12.917Z,80.15
2023-01-26T23:20:45.134Z,80.01
2023-01-26T23:23:19.277Z,80.14
2023-01-26T23:25:51.951Z,79.68
2023-01-26T23:28:26.237Z,79.69
2023-01-26T23:30:59.804Z,79.75
2023-01-26T23:33:33.869Z,79.83
2023-01-26T23:36:07.679Z,79.72
2023-01-26T23:38:40.556Z,79.73
2023-01-26T23:41:12.972Z,79.99
2023-01-26T23:43:45.354Z,80.13
2023-01-26T23:46:17.619Z,80.15
2023-01-26T23:48:49.869Z,79.97
2023-01-26T23:51:22.204Z,80.31
2023-01-26T23:53:55.867Z,80.10
2023-01-26T23:56:28.074Z,80.08
2023-01-26T23:59:00.205Z,80.04
